Time;durP1;ratioP1;P1;durP2;ratioP2;P2;SDS_P1;SDS_P2;PMS_P1;PMS_P2;Temp;Humidity;BMP_temperature;BMP_pressure;BME280_temperature;BME280_humidity;BME280_pressure;Samples;Min_cycle;Max_cycle;Signal;HPM_P1;HPM_P2
2021/06/06 00:01:13;;;;;;;7.22;2.85;;;12.20;99.90;;;10.94;85.26;101796.16;4991713;28;20416;-74
2021/06/06 00:03:43;;;;;;;3.58;2.55;;;12.20;99.90;;;10.91;85.00;101788.34;5001669;28;20063;-75
2021/06/06 00:06:21;;;;;;;4.00;2.80;;;12.00;99.90;;;10.59;86.58;101782.28;4983934;28;20177;-74
2021/06/06 00:08:48;;;;;;;5.68;3.13;;;12.00;99.90;;;10.76;85.96;101789.69;5005108;28;20144;-74
2021/06/06 00:11:25;;;;;;;4.43;2.67;;;12.00;99.90;;;10.66;85.85;101788.22;4975858;28;20069;-74
2021/06/06 00:13:54;;;;;;;7.32;2.67;;;11.80;99.90;;;10.46;86.48;101792.31;4988921;28;20067;-74
2021/06/06 00:16:35;;;;;;;5.22;2.80;;;11.60;99.90;;;10.26;86.79;101795.50;4991631;28;20128;-75
2021/06/06 00:19:02;;;;;;;5.95;2.72;;;11.40;99.90;;;10.13;87.77;101793.22;4985231;28;20500;-74
2021/06/06 00:21:30;;;;;;;7.20;2.90;;;11.40;99.90;;;10.08;87.47;101798.63;4992277;28;20159;-74
2021/06/06 00:23:57;;;;;;;9.90;3.13;;;11.30;99.90;;;10.05;88.51;101789.03;4989856;28;20500;-75
2021/06/06 00:26:26;;;;;;;7.43;3.33;;;11.30;99.90;;;10.09;88.71;101783.72;4992034;28;20075;-74
2021/06/06 00:28:53;;;;;;;7.38;3.20;;;11.30;99.90;;;10.11;89.34;101784.50;5009134;28;20059;-75
2021/06/06 00:31:19;;;;;;;4.45;3.20;;;11.40;99.90;;;10.23;89.11;101784.16;4991825;28;20072;-74
2021/06/06 00:33:47;;;;;;;8.13;3.05;;;11.60;99.90;;;10.41;89.00;101785.44;4994680;28;20079;-74
2021/06/06 00:36:13;;;;;;;4.10;2.83;;;11.70;99.90;;;10.43;88.89;101792.41;4984949;28;20082;-74
2021/06/06 00:38:39;;;;;;;6.00;3.28;;;11.70;99.90;;;10.43;88.97;101787.16;4994643;28;20529;-74
2021/06/06 00:41:06;;;;;;;6.28;3.47;;;11.70;99.90;;;10.44;88.93;101788.84;5011355;28;20065;-75
2021/06/06 00:43:33;;;;;;;4.75;3.20;;;11.70;99.90;;;10.51;89.32;101786.06;4986955;28;20073;-74
2021/06/06 00:45:59;;;;;;;4.85;3.28;;;11.80;99.90;;;10.58;88.36;101783.19;4992142;28;20072;-75
2021/06/06 00:48:25;;;;;;;5.32;3.22;;;12.00;99.90;;;10.78;87.71;101779.09;4996196;28;20058;-74
2021/06/06 00:50:58;;;;;;;4.60;3.13;;;12.00;99.90;;;10.80;87.27;101786.03;5007192;28;20058;-74
2021/06/06 00:53:49;;;;;;;7.88;3.30;;;12.10;99.90;;;10.80;87.32;101780.78;5019237;28;20060;-74
2021/06/06 00:56:27;;;;;;;4.43;3.08;;;12.00;99.90;;;10.80;86.80;101780.78;5023834;28;20088;-74
2021/06/06 00:58:57;;;;;;;5.88;2.78;;;11.90;99.90;;;10.68;86.35;101781.13;5003328;28;20061;-74
2021/06/06 01:01:25;;;;;;;8.07;2.63;;;11.80;99.90;;;10.45;87.10;101774.81;5002172;28;20165;-75
2021/06/06 01:03:55;;;;;;;5.00;3.13;;;11.60;99.90;;;10.26;87.40;101776.22;4995630;28;20050;-74
2021/06/06 01:06:39;;;;;;;4.03;2.50;;;11.50;99.90;;;10.16;88.44;101780.00;4994859;28;20066;-75
2021/06/06 01:09:08;;;;;;;8.38;3.55;;;11.40;99.90;;;10.15;89.99;101781.78;4992906;28;20056;-74
2021/06/06 01:12:07;;;;;;;6.30;3.53;;;11.40;99.90;;;10.12;89.47;101779.22;4981795;28;20102;-74
2021/06/06 01:15:00;;;;;;;5.18;3.40;;;11.40;99.90;;;10.31;90.47;101781.38;4994581;28;20079;-74
2021/06/06 01:17:56;;;;;;;8.15;3.58;;;11.50;99.90;;;10.34;89.53;101781.28;5023650;28;20075;-74
2021/06/06 01:20:53;;;;;;;5.97;3.55;;;11.80;99.90;;;10.65;87.47;101773.34;5023818;28;22828;-74
2021/06/06 01:23:37;;;;;;;5.00;3.28;;;11.90;99.90;;;10.74;88.01;101759.88;5011233;28;20079;-74
2021/06/06 01:26:27;;;;;;;6.03;3.03;;;11.90;99.90;;;10.64;87.48;101768.97;4990464;28;20439;-75
2021/06/06 01:29:09;;;;;;;4.90;2.92;;;11.80;99.90;;;10.44;87.67;101766.94;5026447;28;20577;-75
2021/06/06 01:31:40;;;;;;;4.85;3.10;;;11.60;99.90;;;10.27;88.16;101765.59;5008150;28;20073;-75
2021/06/06 01:34:10;;;;;;;8.43;3.20;;;11.50;99.90;;;10.43;88.70;101758.19;4994933;28;20086;-74
2021/06/06 01:36:46;;;;;;;4.55;2.90;;;11.70;99.90;;;10.48;88.32;101758.03;5031034;28;20146;-74
2021/06/06 01:39:39;;;;;;;3.95;2.58;;;11.60;99.90;;;10.26;88.15;101763.03;5026773;28;20114;-74
2021/06/06 01:42:22;;;;;;;8.90;2.90;;;11.50;99.90;;;10.21;88.19;101767.56;4995344;28;22637;-74
2021/06/06 01:44:53;;;;;;;4.93;3.30;;;11.50;99.90;;;10.13;88.92;101773.06;5010865;28;20523;-74
2021/06/06 01:47:24;;;;;;;6.32;3.28;;;11.40;99.90;;;10.05;89.88;101772.41;4984780;28;20070;-75
2021/06/06 01:49:58;;;;;;;7.60;3.30;;;11.40;99.90;;;10.08;90.24;101761.78;4985199;28;20071;-74
2021/06/06 01:52:29;;;;;;;7.20;3.30;;;11.40;99.90;;;10.19;89.83;101761.47;4987681;28;20071;-75
2021/06/06 01:54:59;;;;;;;7.07;3.38;;;11.60;99.90;;;10.42;89.81;101763.47;5014612;28;20074;-74
2021/06/06 01:57:28;;;;;;;5.75;3.20;;;11.60;99.90;;;10.49;89.34;101761.53;5005841;28;20075;-74
2021/06/06 01:59:58;;;;;;;9.50;3.83;;;11.80;99.90;;;10.73;88.18;101758.16;5006112;28;20060;-75
2021/06/06 02:02:25;;;;;;;5.82;3.50;;;12.00;99.90;;;10.77;87.40;101761.56;4996818;28;20593;-74
2021/06/06 02:04:52;;;;;;;4.38;3.22;;;12.10;99.90;;;10.91;87.03;101762.00;5015258;28;20766;-75
2021/06/06 02:07:32;;;;;;;5.75;3.65;;;12.10;99.90;;;10.98;86.92;101762.66;5015032;28;20144;-75
2021/06/06 02:10:19;;;;;;;5.80;2.95;;;12.10;99.90;;;10.69;87.12;101759.19;5031964;28;20070;-75
2021/06/06 02:12:57;;;;;;;5.53;3.15;;;12.00;99.90;;;10.59;88.07;101755.09;5009761;28;20070;-74
2021/06/06 02:15:30;;;;;;;4.53;3.10;;;11.80;99.90;;;10.38;90.06;101754.81;5033105;28;20637;-74
2021/06/06 02:18:00;;;;;;;5.15;3.30;;;11.60;99.90;;;10.29;90.59;101754.19;5017818;28;20063;-74
2021/06/06 02:20:33;;;;;;;5.03;3.25;;;11.60;99.90;;;10.29;90.59;101756.81;5015218;28;20138;-74
2021/06/06 02:22:59;;;;;;;5.63;3.40;;;11.50;99.90;;;10.30;91.09;101751.53;5005496;28;20514;-75
2021/06/06 02:25:27;;;;;;;6.28;3.20;;;11.60;99.90;;;10.36;90.53;101753.97;4998447;28;20432;-74
2021/06/06 02:28:08;;;;;;;7.18;3.47;;;11.60;99.90;;;10.24;90.03;101754.31;5013320;28;20070;-74
2021/06/06 02:30:49;;;;;;;5.45;3.08;;;11.50;99.90;;;10.24;91.11;101754.31;5001499;28;20395;-74
2021/06/06 02:33:38;;;;;;;8.70;4.13;;;11.50;99.90;;;10.29;91.50;101754.19;5009255;28;20056;-75
2021/06/06 02:36:10;;;;;;;4.80;3.63;;;11.50;99.90;;;10.25;91.35;101756.03;5006681;28;21292;-74
2021/06/06 02:38:49;;;;;;;4.47;3.20;;;11.50;99.90;;;10.24;92.02;101756.97;5014353;28;20063;-74
2021/06/06 02:41:21;;;;;;;3.95;3.00;;;11.40;99.90;;;10.14;92.05;101751.09;5003203;28;20062;-74
2021/06/06 02:44:20;;;;;;;6.38;3.55;;;11.40;99.90;;;10.10;92.38;101757.34;5019084;28;20078;-75
2021/06/06 02:46:49;;;;;;;9.75;3.70;;;11.40;99.90;;;10.26;91.69;101753.38;4999130;28;20410;-74
2021/06/06 02:49:30;;;;;;;6.80;3.65;;;11.50;99.90;;;10.48;90.98;101750.13;5002005;28;20074;-74
2021/06/06 02:52:21;;;;;;;8.93;3.67;;;11.70;99.90;;;10.63;91.49;101748.81;5011690;28;20057;-74
2021/06/06 02:55:00;;;;;;;6.88;3.15;;;12.00;99.90;;;10.84;90.06;101745.53;4990778;28;20066;-75
2021/06/06 02:57:29;;;;;;;7.85;3.60;;;12.20;99.90;;;11.03;89.25;101755.47;5025771;28;20574;-75
2021/06/06 03:00:17;;;;;;;6.03;3.28;;;12.30;99.90;;;11.12;88.54;101739.34;5000546;28;20102;-75
2021/06/06 03:02:50;;;;;;;9.80;3.13;;;12.40;99.90;;;11.15;87.79;101748.94;5008790;28;20480;-75
2021/06/06 03:05:21;;;;;;;10.43;3.30;;;12.50;99.90;;;11.26;87.39;101745.03;5009812;28;20078;-75
2021/06/06 03:07:53;;;;;;;6.70;3.45;;;12.60;99.90;;;11.34;87.29;101754.44;5011534;28;20401;-74
2021/06/06 03:10:22;;;;;;;5.90;3.20;;;12.60;99.90;;;11.38;87.05;101751.69;4997659;28;20537;-74
2021/06/06 03:12:53;;;;;;;4.50;2.95;;;12.70;99.90;;;11.44;86.56;101755.88;4992871;28;20068;-74
2021/06/06 03:15:25;;;;;;;5.68;3.13;;;12.60;99.90;;;11.42;86.56;101752.44;4994560;28;20058;-75
2021/06/06 03:17:53;;;;;;;9.82;3.65;;;12.60;99.90;;;11.38;86.88;101753.44;4980432;28;20259;-75
2021/06/06 03:20:35;;;;;;;6.95;3.42;;;12.60;99.90;;;11.29;87.01;101747.59;5010267;28;20102;-75
2021/06/06 03:23:05;;;;;;;11.48;3.38;;;12.50;99.90;;;11.20;88.00;101750.50;4996496;28;20138;-75
2021/06/06 03:26:02;;;;;;;4.03;3.10;;;12.40;99.90;;;11.14;88.35;101758.59;4996009;28;20404;-74
2021/06/06 03:28:33;;;;;;;5.97;3.60;;;12.40;99.90;;;11.07;88.56;101757.09;4988991;28;21410;-75
2021/06/06 03:31:27;;;;;;;4.80;3.60;;;12.30;99.90;;;11.13;88.36;101761.31;5012928;28;20063;-75
2021/06/06 03:34:00;;;;;;;4.95;3.40;;;12.30;99.90;;;10.93;88.99;101754.03;5002452;28;20082;-75
2021/06/06 03:36:35;;;;;;;8.95;3.05;;;12.20;99.90;;;10.84;89.64;101763.97;4974580;28;20644;-75
2021/06/06 03:39:09;;;;;;;5.05;2.80;;;12.20;99.90;;;10.87;89.85;101757.72;4993553;28;23590;-75
2021/06/06 03:41:35;;;;;;;5.63;3.15;;;12.30;99.90;;;10.98;89.61;101760.03;4994570;28;20503;-75
2021/06/06 03:44:03;;;;;;;8.30;3.17;;;12.50;99.90;;;11.18;88.94;101768.13;4996192;28;25133;-75
2021/06/06 03:46:30;;;;;;;7.88;2.85;;;12.90;99.90;;;11.57;88.33;101757.19;5011993;28;20077;-75
2021/06/06 03:48:58;;;;;;;7.45;3.13;;;13.30;99.90;;;11.84;86.22;101752.72;5010814;28;20139;-75
2021/06/06 03:51:28;;;;;;;4.97;3.17;;;13.60;99.90;;;12.46;83.56;101756.66;5014706;28;20079;-75
2021/06/06 03:53:54;;;;;;;4.35;2.72;;;14.20;99.90;;;12.92;82.37;101761.94;5011528;28;20513;-74
2021/06/06 03:56:22;;;;;;;5.63;3.05;;;14.70;99.90;;;13.23;80.70;101756.25;5002789;28;20153;-75
2021/06/06 03:58:48;;;;;;;6.32;2.78;;;15.10;99.90;;;13.66;78.14;101759.75;4981413;28;20513;-75
2021/06/06 04:01:15;;;;;;;4.43;2.47;;;15.60;99.90;;;14.44;75.35;101751.88;4970454;28;20061;-75
2021/06/06 04:03:41;;;;;;;4.70;2.47;;;16.60;99.90;;;15.31;72.61;101766.28;5011763;28;20138;-74
2021/06/06 04:06:07;;;;;;;5.20;3.10;;;17.50;99.90;;;16.03;69.14;101752.91;5011666;28;20068;-75
2021/06/06 04:08:34;;;;;;;3.63;2.50;;;18.30;99.90;;;16.83;65.19;101754.75;5009436;28;20034;-75
2021/06/06 04:11:00;;;;;;;4.00;2.33;;;18.30;99.90;;;16.60;66.26;101753.31;4995901;28;20029;-75
2021/06/06 04:13:27;;;;;;;3.45;2.30;;;18.30;99.90;;;16.47;66.70;101753.16;4993622;28;20030;-75
2021/06/06 04:15:53;;;;;;;5.57;2.28;;;18.60;99.90;;;16.70;66.20;101748.38;4969817;28;20079;-75
2021/06/06 04:18:30;;;;;;;7.35;2.45;;;18.90;99.90;;;17.43;62.52;101743.28;4988124;28;20030;-75
2021/06/06 04:21:01;;;;;;;2.92;2.35;;;19.30;99.90;;;16.99;64.36;101754.72;4973868;28;20045;-75
2021/06/06 04:23:28;;;;;;;9.35;2.22;;;19.20;99.90;;;17.38;63.39;101756.84;4987987;28;20164;-75
2021/06/06 04:25:54;;;;;;;4.40;2.55;;;19.40;99.90;;;17.51;63.22;101759.66;4975245;28;20034;-75
2021/06/06 04:28:23;;;;;;;5.03;2.03;;;19.50;99.90;;;17.70;63.74;101751.41;4982136;28;20120;-75
2021/06/06 04:30:50;;;;;;;4.53;2.45;;;19.40;99.90;;;17.72;62.70;101759.31;4982934;28;20091;-75
2021/06/06 04:33:16;;;;;;;4.00;2.33;;;20.20;99.90;;;18.62;60.27;101756.41;4991081;28;20084;-74
2021/06/06 04:35:44;;;;;;;6.82;2.55;;;20.80;99.90;;;18.84;59.71;101755.03;5012373;28;20049;-75
2021/06/06 04:38:15;;;;;;;6.20;2.20;;;21.10;99.90;;;19.30;56.06;101748.47;5002274;28;20107;-75
2021/06/06 04:40:44;;;;;;;3.20;1.98;;;21.60;99.90;;;20.12;55.36;101755.28;5011228;28;20496;-75
2021/06/06 04:43:11;;;;;;;4.07;2.03;;;21.80;99.90;;;19.96;54.37;101752.84;5001688;28;20032;-75
2021/06/06 04:45:37;;;;;;;4.88;2.25;;;22.30;99.90;;;20.51;53.80;101757.91;5011503;28;20483;-75
2021/06/06 04:48:11;;;;;;;2.50;2.10;;;22.20;99.90;;;20.28;52.83;101753.25;4999887;28;20033;-75
2021/06/06 04:50:39;;;;;;;2.95;1.90;;;22.00;99.90;;;20.05;54.39;101756.69;4995153;28;20039;-75
2021/06/06 04:53:05;;;;;;;3.60;1.95;;;22.00;99.90;;;19.93;54.81;101752.19;5011223;28;20038;-75
2021/06/06 04:55:31;;;;;;;4.40;1.98;;;22.20;99.90;;;20.27;53.54;101750.66;5012663;28;20025;-76
2021/06/06 04:57:57;;;;;;;5.05;2.20;;;22.00;99.90;;;20.47;53.79;101759.94;5011470;28;20021;-75
2021/06/06 05:00:27;;;;;;;4.63;2.10;;;22.70;99.90;;;21.09;51.04;101753.63;4979471;28;20022;-75
2021/06/06 05:02:54;;;;;;;3.35;2.10;;;23.20;98.90;;;21.02;51.91;101755.91;5010962;28;20014;-76
2021/06/06 05:05:21;;;;;;;2.90;1.90;;;23.70;99.20;;;22.11;49.63;101750.25;5000993;28;20040;-75
2021/06/06 05:07:58;;;;;;;4.75;2.08;;;24.60;96.20;;;22.66;46.92;101758.41;4994231;28;20393;-76
2021/06/06 05:10:25;;;;;;;2.72;2.05;;;24.40;96.20;;;22.51;48.09;101754.28;4986584;28;20038;-75
2021/06/06 05:12:51;;;;;;;4.80;2.00;;;23.60;95.30;;;21.26;50.04;101761.25;4957446;28;20501;-75
2021/06/06 05:15:20;;;;;;;5.20;2.10;;;23.90;96.90;;;22.43;47.47;101748.69;4983370;28;20057;-75
2021/06/06 05:17:46;;;;;;;3.08;2.10;;;24.80;94.60;;;23.38;43.89;101756.13;4992418;28;20044;-75
2021/06/06 05:20:15;;;;;;;2.65;1.98;;;24.70;94.10;;;22.83;44.83;101751.66;4966446;28;20022;-75
2021/06/06 05:22:41;;;;;;;2.35;1.75;;;24.10;94.50;;;22.67;45.77;101754.72;4990111;28;20481;-76
2021/06/06 05:25:08;;;;;;;4.80;2.10;;;24.80;94.00;;;23.70;44.18;101758.72;4977693;28;20072;-76
2021/06/06 05:27:35;;;;;;;4.07;2.05;;;24.20;93.40;;;22.16;45.75;101755.25;4983219;28;20037;-75
2021/06/06 05:30:05;;;;;;;4.07;1.90;;;23.70;94.90;;;21.91;47.76;101754.50;4974792;28;20397;-75
2021/06/06 05:32:31;;;;;;;3.28;2.17;;;23.50;95.30;;;22.02;47.50;101756.34;4974787;28;20472;-76
2021/06/06 05:34:57;;;;;;;3.38;2.15;;;23.00;95.80;;;21.43;48.82;101754.66;4973387;28;20064;-75
2021/06/06 05:37:23;;;;;;;3.58;2.10;;;23.70;94.70;;;22.60;45.48;101756.22;4969835;28;20045;-75
2021/06/06 05:39:49;;;;;;;3.63;2.03;;;24.20;94.80;;;22.51;45.92;101765.03;4984389;28;20030;-75
2021/06/06 05:42:15;;;;;;;3.47;2.10;;;24.00;94.60;;;22.82;46.01;101760.69;5005976;28;20076;-75
2021/06/06 05:44:40;;;;;;;3.33;2.00;;;24.40;93.50;;;22.47;44.97;101764.41;4994429;28;20437;-74
2021/06/06 05:47:07;;;;;;;5.05;1.90;;;23.80;94.50;;;21.81;47.07;101764.22;4975561;28;20362;-75
2021/06/06 05:49:33;;;;;;;4.63;2.10;;;23.80;94.50;;;22.11;46.67;101765.47;4986485;28;20064;-75
2021/06/06 05:51:59;;;;;;;8.38;2.13;;;23.30;95.40;;;22.13;48.42;101763.53;4992725;28;20057;-75
2021/06/06 05:54:25;;;;;;;3.47;2.13;;;24.10;94.40;;;22.41;45.11;101762.22;4978435;28;20041;-75
2021/06/06 05:56:50;;;;;;;5.53;2.15;;;24.20;93.60;;;23.08;45.38;101768.44;4976614;28;20053;-75
2021/06/06 05:59:17;;;;;;;2.17;1.98;;;24.10;93.40;;;22.36;45.14;101763.59;4970629;28;20035;-75
2021/06/06 06:01:43;;;;;;;4.40;2.30;;;23.70;94.30;;;21.66;47.43;101765.41;4977809;28;20208;-75
2021/06/06 06:04:09;;;;;;;3.20;2.30;;;23.10;95.00;;;21.53;48.61;101767.34;4977928;28;20037;-75
2021/06/06 06:06:35;;;;;;;5.68;2.38;;;23.20;94.90;;;21.72;47.32;101767.63;5001057;28;20366;-75
2021/06/06 06:09:03;;;;;;;3.10;1.95;;;23.00;95.70;;;22.02;48.06;101767.06;4976705;28;20034;-75
2021/06/06 06:11:29;;;;;;;2.80;2.00;;;23.70;94.30;;;23.14;43.65;101765.25;4977954;28;20026;-76
2021/06/06 06:13:55;;;;;;;5.30;2.50;;;23.70;95.00;;;22.18;47.50;101760.47;4971081;28;20030;-75
2021/06/06 06:16:27;;;;;;;3.50;2.30;;;23.80;94.70;;;22.35;46.70;101767.22;4994773;28;20502;-75
2021/06/06 06:18:54;;;;;;;4.90;2.17;;;23.80;94.20;;;22.72;44.49;101765.97;4994773;28;20061;-75
2021/06/06 06:21:23;;;;;;;3.63;2.50;;;23.10;95.00;;;21.85;46.81;101775.56;4971386;28;20037;-75
2021/06/06 06:23:49;;;;;;;5.30;2.20;;;23.40;94.80;;;22.39;46.39;101771.38;5005216;28;20025;-75
2021/06/06 06:26:15;;;;;;;4.15;2.20;;;24.00;95.00;;;22.99;45.05;101775.41;5013178;28;20086;-75
2021/06/06 06:28:45;;;;;;;4.68;2.17;;;24.20;93.80;;;22.34;46.14;101770.91;5009530;28;20037;-75
2021/06/06 06:31:13;;;;;;;6.15;2.13;;;24.00;93.60;;;23.14;43.58;101776.84;4998225;28;20026;-75
2021/06/06 06:33:41;;;;;;;3.10;2.38;;;24.70;93.00;;;23.40;42.98;101770.28;5002327;28;20124;-75
2021/06/06 06:36:10;;;;;;;4.68;2.28;;;24.70;93.20;;;23.40;43.57;101776.50;5006712;28;20477;-75
2021/06/06 06:38:35;;;;;;;5.82;2.10;;;25.20;93.20;;;24.12;41.84;101766.75;4984617;28;20040;-75
2021/06/06 06:41:03;;;;;;;3.05;1.95;;;24.70;92.40;;;23.07;44.32;101778.34;4987285;28;20029;-75
2021/06/06 06:43:29;;;;;;;3.50;2.30;;;24.50;92.70;;;23.12;43.02;101783.34;4987679;28;20040;-75
2021/06/06 06:45:56;;;;;;;9.32;2.78;;;24.40;92.60;;;22.84;45.46;101780.19;4996418;28;20083;-75
2021/06/06 06:48:29;;;;;;;4.30;2.03;;;24.60;92.70;;;24.22;40.60;101777.59;5008562;28;20122;-75
2021/06/06 06:50:57;;;;;;;3.97;2.60;;;24.60;92.60;;;23.73;42.43;101774.59;4985270;28;20053;-75
2021/06/06 06:53:23;;;;;;;4.13;2.35;;;24.70;91.30;;;23.90;40.20;101789.31;5013654;28;20029;-75
2021/06/06 06:55:50;;;;;;;4.63;2.40;;;24.30;91.80;;;22.65;43.08;101783.53;4980499;28;20445;-75
2021/06/06 06:58:20;;;;;;;4.55;2.40;;;23.10;92.00;;;20.94;44.60;101793.13;5010070;28;20124;-75
2021/06/06 07:00:50;;;;;;;4.78;2.50;;;22.20;93.70;;;21.39;45.61;101782.63;5013816;28;20028;-75
2021/06/06 07:03:25;;;;;;;4.85;2.75;;;23.10;92.80;;;22.87;40.73;101784.47;5025377;28;20029;-75
2021/06/06 07:05:53;;;;;;;2.78;2.20;;;24.00;92.40;;;23.57;41.68;101787.66;5013410;28;20032;-77
2021/06/06 07:08:28;;;;;;;5.43;2.08;;;24.30;90.40;;;23.18;39.79;101784.66;5003223;28;20033;-75
2021/06/06 07:10:54;;;;;;;2.53;2.17;;;24.20;91.40;;;23.37;41.95;101779.44;5014690;28;20368;-75
2021/06/06 07:13:21;;;;;;;4.05;1.95;;;24.70;88.60;;;24.06;38.47;101788.81;5004661;28;24575;-75
2021/06/06 07:15:48;;;;;;;4.82;2.00;;;25.10;88.40;;;23.95;37.43;101793.31;5034562;28;20033;-75
2021/06/06 07:18:20;;;;;;;5.25;1.95;;;24.90;87.20;;;23.44;38.02;101795.91;4995420;28;20037;-75
2021/06/06 07:20:49;;;;;;;2.65;1.75;;;24.70;87.90;;;22.76;37.83;101796.06;5010163;28;20405;-75
2021/06/06 07:23:16;;;;;;;5.03;2.08;;;23.00;89.90;;;21.04;42.22;101801.34;4978513;28;20065;-75
2021/06/06 07:25:44;;;;;;;9.10;2.40;;;22.70;90.90;;;21.60;41.08;101798.06;5009753;28;20024;-74
2021/06/06 07:28:19;;;;;;;6.57;2.03;;;22.80;90.60;;;22.39;40.22;101801.72;5012696;28;20029;-74
2021/06/06 07:30:50;;;;;;;3.63;2.45;;;23.00;90.50;;;22.35;40.65;101794.06;5004618;28;20107;-75
2021/06/06 07:33:21;;;;;;;4.85;2.20;;;22.90;90.00;;;21.84;40.80;101798.88;5011473;28;20477;-74
2021/06/06 07:35:48;;;;;;;5.68;2.00;;;22.40;90.70;;;21.59;41.65;101799.03;5006942;28;20048;-74
2021/06/06 07:38:14;;;;;;;3.88;2.15;;;22.90;90.70;;;22.37;39.25;101795.63;5024293;28;20204;-74
2021/06/06 07:40:44;;;;;;;4.25;1.90;;;23.40;90.20;;;22.96;40.00;101793.59;5029090;28;20390;-75
2021/06/06 07:43:12;;;;;;;4.68;2.33;;;24.20;89.40;;;23.48;39.03;101795.50;5004292;28;20021;-75
2021/06/06 07:45:40;;;;;;;8.13;2.35;;;24.60;87.60;;;24.11;36.79;101791.97;5005475;28;20091;-74
2021/06/06 07:48:08;;;;;;;3.83;2.17;;;25.00;88.20;;;25.22;35.84;101787.50;5002918;28;20033;-75
2021/06/06 07:50:39;;;;;;;5.07;2.10;;;25.20;86.30;;;25.38;35.15;101787.78;5011721;28;20045;-75
2021/06/06 07:53:05;;;;;;;3.13;1.98;;;26.00;85.90;;;25.39;36.34;101784.09;5012229;28;20096;-75
2021/06/06 07:55:31;;;;;;;3.00;2.15;;;26.10;82.70;;;25.29;35.21;101783.22;5010531;28;20025;-75
2021/06/06 07:57:57;;;;;;;2.17;1.98;;;26.20;82.00;;;25.72;33.71;101784.59;5012683;28;20109;-75
2021/06/06 08:00:34;;;;;;;7.88;2.47;;;25.30;83.00;;;24.18;35.96;101801.22;4992251;28;20030;-74
2021/06/06 08:03:01;;;;;;;2.70;1.90;;;24.60;83.40;;;23.56;37.39;101792.16;5012533;28;20422;-74
2021/06/06 08:05:27;;;;;;;7.20;2.08;;;24.40;86.10;;;23.44;37.05;101798.59;5014130;28;20018;-75
2021/06/06 08:07:54;;;;;;;5.15;2.13;;;23.90;86.10;;;22.89;39.04;101794.13;4993026;28;20539;-75
2021/06/06 08:10:25;;;;;;;3.45;1.95;;;23.70;89.70;;;22.71;39.95;101798.28;5011770;28;20024;-74
2021/06/06 08:12:51;;;;;;;6.05;2.17;;;24.00;88.00;;;23.21;39.39;101804.03;5024177;28;20060;-75
2021/06/06 08:15:20;;;;;;;3.33;2.00;;;24.00;86.20;;;22.99;38.51;101802.25;5010510;28;20025;-75
2021/06/06 08:17:46;;;;;;;3.08;1.92;;;24.00;87.30;;;22.98;38.13;101807.75;5012418;28;20051;-74
2021/06/06 08:20:27;;;;;;;2.92;1.90;;;24.10;84.50;;;23.25;37.05;101799.28;5010995;28;20030;-75
2021/06/06 08:22:54;;;;;;;4.15;2.03;;;24.70;84.20;;;24.35;35.80;101800.56;5012423;28;20032;-75
2021/06/06 08:25:22;;;;;;;5.70;1.90;;;24.80;84.80;;;23.74;35.48;101808.59;4976068;28;20073;-75
2021/06/06 08:27:49;;;;;;;2.92;1.98;;;24.80;81.10;;;23.94;35.50;101801.50;4960660;28;20028;-75
2021/06/06 08:30:51;;;;;;;3.70;1.90;;;24.80;80.10;;;23.84;35.03;101809.50;4988939;28;20473;-75
2021/06/06 08:33:21;;;;;;;2.83;1.98;;;24.80;80.50;;;23.68;35.24;101811.78;4993484;28;20104;-74
2021/06/06 08:35:48;;;;;;;3.08;1.77;;;24.80;80.10;;;23.72;34.65;101810.53;5012692;28;20037;-75
2021/06/06 08:38:14;;;;;;;5.47;2.20;;;24.80;77.90;;;23.47;33.54;101803.69;5002397;28;20053;-74
2021/06/06 08:41:14;;;;;;;3.72;1.85;;;24.50;79.10;;;23.54;33.35;101810.25;5011758;28;20029;-75
2021/06/06 08:43:50;;;;;;;3.25;1.55;;;23.90;77.80;;;22.29;34.92;101811.50;4991851;28;20026;-75
2021/06/06 08:46:20;;;;;;;3.83;1.83;;;24.20;79.10;;;23.13;33.78;101799.31;4987980;28;20025;-74
2021/06/06 08:48:46;;;;;;;4.45;2.10;;;24.00;78.90;;;22.98;34.17;101805.94;4996591;28;20060;-74
2021/06/06 08:52:02;;;;;;;3.05;1.60;;;24.10;77.70;;;23.11;34.55;101803.13;4986440;28;20542;-75
2021/06/06 08:54:46;;;;;;;3.78;2.00;;;23.60;79.80;;;22.24;35.09;101801.13;4980687;28;20108;-75
2021/06/06 08:57:24;;;;;;;5.80;2.45;;;23.60;80.30;;;22.75;34.48;101815.03;5015639;28;20515;-75
2021/06/06 08:59:54;;;;;;;2.58;1.67;;;23.90;80.00;;;22.79;35.40;101811.13;4993712;28;20039;-74
2021/06/06 09:02:54;;;;;;;2.97;1.60;;;24.00;81.70;;;23.13;35.35;101809.19;4963170;28;20508;-74
2021/06/06 09:05:50;;;;;;;9.57;1.80;;;24.40;77.60;;;23.05;33.34;101809.84;4969728;28;20064;-75
2021/06/06 09:08:43;;;;;;;10.77;1.70;;;23.70;81.20;;;22.93;35.03;101800.06;4949904;28;20038;-74
2021/06/06 09:11:51;;;;;;;2.75;1.40;;;23.70;77.70;;;22.34;34.56;101811.16;4927319;28;20303;-75
2021/06/06 09:15:04;;;;;;;2.55;1.52;;;23.70;78.70;;;22.36;33.60;101815.41;4954331;28;20044;-74
2021/06/06 09:18:44;;;;;;;4.60;1.65;;;23.70;77.50;;;23.03;33.88;101811.81;4949532;28;20138;-75
2021/06/06 09:21:41;;;;;;;2.35;1.40;;;23.60;77.10;;;22.40;34.40;101811.50;4959867;28;20030;-75
2021/06/06 09:25:27;;;;;;;3.00;1.40;;;23.70;78.90;;;22.58;32.59;101811.84;4939088;28;20719;-75
2021/06/06 09:28:45;;;;;;;4.47;1.58;;;23.60;76.60;;;22.32;33.12;101817.47;4944744;28;20046;-74
2021/06/06 09:31:53;;;;;;;3.05;1.55;;;23.50;76.10;;;22.54;32.85;101815.75;4960879;28;20362;-74
2021/06/06 09:35:15;;;;;;;2.13;1.65;;;23.40;79.00;;;23.00;32.99;101816.53;4956707;28;20493;-74
2021/06/06 09:38:53;;;;;;;3.83;1.45;;;23.80;76.30;;;23.18;32.65;101817.75;4959787;28;20046;-75
2021/06/06 09:46:03;;;;;;;2.80;1.70;;;23.70;74.80;;;22.77;33.72;101823.81;4968335;28;20047;-74
2021/06/06 09:49:53;;;;;;;3.90;1.50;;;23.40;75.80;;;22.94;33.61;101820.59;4963575;28;20026;-74
2021/06/06 09:53:00;;;;;;;2.20;1.60;;;24.00;77.50;;;23.51;31.85;101814.06;4951085;28;20128;-74
2021/06/06 09:56:15;;;;;;;2.58;1.58;;;23.90;77.50;;;22.98;33.49;101811.31;4981477;28;20111;-74
2021/06/06 09:59:43;;;;;;;4.05;1.65;;;24.30;76.20;;;24.02;32.19;101819.69;4974473;28;20041;-75
2021/06/06 10:03:05;;;;;;;1.83;1.08;;;24.30;74.40;;;23.19;32.65;101810.53;4968775;28;20083;-75
2021/06/06 10:06:29;;;;;;;3.83;1.35;;;24.40;76.40;;;23.98;32.34;101813.72;4960418;28;20040;-75
2021/06/06 10:09:20;;;;;;;2.38;1.50;;;24.80;74.70;;;23.70;32.55;101826.81;4988723;28;20093;-75
2021/06/06 10:12:40;;;;;;;7.45;2.80;;;24.80;75.20;;;23.75;30.74;101812.97;4943704;28;20026;-74
2021/06/06 10:15:32;;;;;;;2.22;1.40;;;24.50;74.40;;;23.75;30.56;101818.34;4944440;28;20094;-74
2021/06/06 10:18:39;;;;;;;2.05;1.40;;;24.80;72.00;;;24.07;30.03;101817.44;4957650;28;20595;-74
2021/06/06 10:21:33;;;;;;;2.08;1.48;;;25.20;76.20;;;24.84;30.76;101816.94;4944982;28;20030;-74
2021/06/06 10:24:35;;;;;;;1.58;1.48;;;25.20;70.50;;;23.95;29.92;101822.03;4956986;28;20025;-74
2021/06/06 10:27:27;;;;;;;2.15;1.13;;;24.70;72.20;;;23.42;31.31;101822.91;4958732;28;20473;-75
2021/06/06 10:30:13;;;;;;;1.95;1.40;;;24.60;71.50;;;23.79;30.73;101816.28;4984395;28;20033;-74
2021/06/06 10:32:44;;;;;;;2.10;1.50;;;24.90;71.00;;;24.18;29.78;101820.03;5011350;28;20492;-75
2021/06/06 10:35:26;;;;;;;1.88;1.20;;;24.90;70.20;;;23.94;31.58;101829.25;5009820;28;20443;-75
2021/06/06 10:37:55;;;;;;;3.22;1.65;;;24.90;70.00;;;24.12;30.91;101818.72;4996859;28;20119;-74
2021/06/06 10:40:32;;;;;;;3.63;1.23;;;24.40;70.40;;;23.26;30.20;101827.84;5004401;28;20537;-74
2021/06/06 10:43:13;;;;;;;2.75;1.63;;;24.20;72.10;;;23.59;30.29;101823.34;5003711;28;20073;-75
2021/06/06 10:45:50;;;;;;;2.28;1.48;;;24.30;71.90;;;23.48;30.70;101821.56;4985985;28;20021;-75
2021/06/06 10:48:34;;;;;;;2.67;1.33;;;24.60;71.10;;;23.85;30.15;101818.44;4979137;28;20036;-74
2021/06/06 10:51:31;;;;;;;1.73;1.20;;;24.60;69.40;;;24.02;28.88;101825.06;5027658;28;20109;-75
2021/06/06 10:54:03;;;;;;;2.05;1.58;;;24.70;70.70;;;24.07;30.35;101820.13;5023756;28;20029;-74